Deer Creek, Wisconsin
Current Conditions -  °F | °C
As of 4:55 AM on Wednesday 22 Oct 2014 (Local Time) from KMDZ Reporting Station
Clear Clear  
Wind Chill: 33°   Ceiling: Unl
Heat Index: 33°   Visibility: 10mi
Dew Point: 31°   Wind: 3mph
Humidity: 93%   Direction: 150°SSE
Pressure: 30.29"   Gusts: NA
Location:  45.0778°N, 90.2576°W
Report Text: KMDZ 220955Z AUTO 15003KT 10SM CLR 00/M01 A3029 RMK AO2 T00041006
Loading
Personal Weather Stations






























Interactive Weather Map
Tropical Storm Tracking
New forecast layout! Learn more

10-Day Weather Forecast

Advertisements
Track Severe Weather on mobile